sensor_id;sensor_type;location;lat;lon;timestamp;pressure;altitude;pressure_sealevel;temperature;humidity
17383;BME280;8809;51.892;8.384;2022-10-16T00:01:06;100126.03;;;13.89;100.00
17383;BME280;8809;51.892;8.384;2022-10-16T00:03:34;100120.78;;;13.89;100.00
17383;BME280;8809;51.892;8.384;2022-10-16T00:06:01;100121.59;;;13.87;100.00
17383;BME280;8809;51.892;8.384;2022-10-16T00:08:29;100127.72;;;13.87;100.00
17383;BME280;8809;51.892;8.384;2022-10-16T00:11:00;100120.69;;;13.86;100.00
17383;BME280;8809;51.892;8.384;2022-10-16T00:13:29;100119.81;;;13.86;100.00
17383;BME280;8809;51.892;8.384;2022-10-16T00:15:57;100116.31;;;13.84;100.00
17383;BME280;8809;51.892;8.384;2022-10-16T00:18:25;100126.78;;;13.84;100.00
17383;BME280;8809;51.892;8.384;2022-10-16T00:20:53;100120.63;;;13.82;100.00
17383;BME280;8809;51.892;8.384;2022-10-16T00:23:21;100126.72;;;13.81;100.00
17383;BME280;8809;51.892;8.384;2022-10-16T00:25:55;100141.56;;;13.80;100.00
17383;BME280;8809;51.892;8.384;2022-10-16T00:28:23;100136.25;;;13.77;100.00
17383;BME280;8809;51.892;8.384;2022-10-16T00:30:51;100131.81;;;13.74;100.00
17383;BME280;8809;51.892;8.384;2022-10-16T00:33:19;100127.41;;;13.72;100.00
17383;BME280;8809;51.892;8.384;2022-10-16T00:35:46;100129.09;;;13.70;100.00
17383;BME280;8809;51.892;8.384;2022-10-16T00:38:13;100120.28;;;13.66;100.00
17383;BME280;8809;51.892;8.384;2022-10-16T00:40:40;100118.50;;;13.65;100.00
17383;BME280;8809;51.892;8.384;2022-10-16T00:43:12;100119.38;;;13.64;100.00
17383;BME280;8809;51.892;8.384;2022-10-16T00:45:41;100119.34;;;13.63;100.00
17383;BME280;8809;51.892;8.384;2022-10-16T00:48:12;100122.78;;;13.60;100.00
17383;BME280;8809;51.892;8.384;2022-10-16T00:50:40;100123.63;;;13.59;100.00
17383;BME280;8809;51.892;8.384;2022-10-16T00:53:10;100119.19;;;13.57;100.00
17383;BME280;8809;51.892;8.384;2022-10-16T00:55:37;100121.78;;;13.55;100.00
17383;BME280;8809;51.892;8.384;2022-10-16T00:58:04;100123.50;;;13.53;100.00
17383;BME280;8809;51.892;8.384;2022-10-16T01:00:32;100128.72;;;13.52;100.00
17383;BME280;8809;51.892;8.384;2022-10-16T01:03:00;100123.44;;;13.50;100.00
17383;BME280;8809;51.892;8.384;2022-10-16T01:05:35;100134.75;;;13.49;100.00
17383;BME280;8809;51.892;8.384;2022-10-16T01:08:09;100139.91;;;13.46;100.00
17383;BME280;8809;51.892;8.384;2022-10-16T01:10:42;100143.38;;;13.44;100.00
17383;BME280;8809;51.892;8.384;2022-10-16T01:13:17;100139.00;;;13.43;100.00
17383;BME280;8809;51.892;8.384;2022-10-16T01:15:52;100138.06;;;13.41;100.00
17383;BME280;8809;51.892;8.384;2022-10-16T01:18:24;100134.50;;;13.38;100.00
17383;BME280;8809;51.892;8.384;2022-10-16T01:21:01;100136.19;;;13.35;100.00
17383;BME280;8809;51.892;8.384;2022-10-16T01:23:38;100147.53;;;13.34;100.00
17383;BME280;8809;51.892;8.384;2022-10-16T01:26:17;100142.22;;;13.31;100.00
17383;BME280;8809;51.892;8.384;2022-10-16T01:28:52;100143.06;;;13.30;100.00
17383;BME280;8809;51.892;8.384;2022-10-16T01:31:24;100142.97;;;13.27;100.00
17383;BME280;8809;51.892;8.384;2022-10-16T01:33:57;100145.53;;;13.24;100.00
17383;BME280;8809;51.892;8.384;2022-10-16T01:36:31;100148.13;;;13.22;100.00
17383;BME280;8809;51.892;8.384;2022-10-16T01:39:01;100162.03;;;13.20;100.00
17383;BME280;8809;51.892;8.384;2022-10-16T01:41:33;100159.38;;;13.18;100.00
17383;BME280;8809;51.892;8.384;2022-10-16T01:44:05;100160.19;;;13.16;100.00
17383;BME280;8809;51.892;8.384;2022-10-16T01:46:37;100161.88;;;13.14;100.00
17383;BME280;8809;51.892;8.384;2022-10-16T01:49:06;100158.31;;;13.12;100.00
17383;BME280;8809;51.892;8.384;2022-10-16T01:51:35;100156.44;;;13.08;100.00
17383;BME280;8809;51.892;8.384;2022-10-16T01:54:06;100159.94;;;13.07;100.00
17383;BME280;8809;51.892;8.384;2022-10-16T01:56:36;100160.75;;;13.04;100.00
17383;BME280;8809;51.892;8.384;2022-10-16T01:59:09;100151.06;;;13.01;100.00
17383;BME280;8809;51.892;8.384;2022-10-16T02:01:40;100158.88;;;13.00;100.00
17383;BME280;8809;51.892;8.384;2022-10-16T02:04:10;100153.59;;;12.97;100.00
17383;BME280;8809;51.892;8.384;2022-10-16T02:06:39;100154.41;;;12.94;100.00
17383;BME280;8809;51.892;8.384;2022-10-16T02:09:06;100150.84;;;12.92;100.00
17383;BME280;8809;51.892;8.384;2022-10-16T02:11:33;100147.31;;;12.90;100.00
17383;BME280;8809;51.892;8.384;2022-10-16T02:14:03;100148.13;;;12.88;100.00
17383;BME280;8809;51.892;8.384;2022-10-16T02:16:40;100149.81;;;12.86;100.00
17383;BME280;8809;51.892;8.384;2022-10-16T02:19:12;100153.25;;;12.83;100.00
17383;BME280;8809;51.892;8.384;2022-10-16T02:21:43;100157.53;;;12.81;100.00
17383;BME280;8809;51.892;8.384;2022-10-16T02:24:16;100152.25;;;12.80;100.00
17383;BME280;8809;51.892;8.384;2022-10-16T02:26:48;100147.03;;;12.78;100.00
17383;BME280;8809;51.892;8.384;2022-10-16T02:29:23;100146.13;;;12.78;100.00
17383;BME280;8809;51.892;8.384;2022-10-16T02:31:57;100153.09;;;12.77;100.00
17383;BME280;8809;51.892;8.384;2022-10-16T02:34:27;100160.06;;;12.77;100.00
17383;BME280;8809;51.892;8.384;2022-10-16T02:36:56;100160.09;;;12.78;100.00
17383;BME280;8809;51.892;8.384;2022-10-16T02:39:25;100164.47;;;12.79;100.00
17383;BME280;8809;51.892;8.384;2022-10-16T02:41:53;100156.66;;;12.81;100.00
17383;BME280;8809;51.892;8.384;2022-10-16T02:44:20;100145.28;;;12.80;100.00
17383;BME280;8809;51.892;8.384;2022-10-16T02:46:47;100154.88;;;12.80;100.00
17383;BME280;8809;51.892;8.384;2022-10-16T02:49:16;100151.38;;;12.79;100.00
17383;BME280;8809;51.892;8.384;2022-10-16T02:51:43;100159.22;;;12.79;100.00
17383;BME280;8809;51.892;8.384;2022-10-16T02:54:13;100157.50;;;12.80;100.00
17383;BME280;8809;51.892;8.384;2022-10-16T02:56:40;100156.59;;;12.79;100.00
17383;BME280;8809;51.892;8.384;2022-10-16T02:59:07;100165.28;;;12.77;100.00
17383;BME280;8809;51.892;8.384;2022-10-16T03:01:34;100167.97;;;12.78;100.00
17383;BME280;8809;51.892;8.384;2022-10-16T03:04:01;100165.28;;;12.77;100.00
17383;BME280;8809;51.892;8.384;2022-10-16T03:06:29;100169.69;;;12.78;100.00
17383;BME280;8809;51.892;8.384;2022-10-16T03:08:56;100161.78;;;12.76;100.00
17383;BME280;8809;51.892;8.384;2022-10-16T03:11:23;100164.41;;;12.76;100.00
17383;BME280;8809;51.892;8.384;2022-10-16T03:13:50;100164.41;;;12.76;100.00
17383;BME280;8809;51.892;8.384;2022-10-16T03:16:17;100160.09;;;12.78;100.00
17383;BME280;8809;51.892;8.384;2022-10-16T03:18:48;100164.47;;;12.79;100.00
17383;BME280;8809;51.892;8.384;2022-10-16T03:21:15;100161.09;;;12.83;100.00
17383;BME280;8809;51.892;8.384;2022-10-16T03:23:43;100165.44;;;12.83;100.00
17383;BME280;8809;51.892;8.384;2022-10-16T03:26:10;100153.16;;;12.80;100.00
17383;BME280;8809;51.892;8.384;2022-10-16T03:28:37;100158.34;;;12.79;100.00
17383;BME280;8809;51.892;8.384;2022-10-16T03:31:04;100159.22;;;12.79;100.00
17383;BME280;8809;51.892;8.384;2022-10-16T03:33:31;100151.38;;;12.78;100.00
17383;BME280;8809;51.892;8.384;2022-10-16T03:35:58;100160.13;;;12.80;100.00
17383;BME280;8809;51.892;8.384;2022-10-16T03:38:25;100161.84;;;12.78;100.00
17383;BME280;8809;51.892;8.384;2022-10-16T03:40:54;100164.47;;;12.79;100.00
17383;BME280;8809;51.892;8.384;2022-10-16T03:43:21;100159.22;;;12.79;100.00
17383;BME280;8809;51.892;8.384;2022-10-16T03:45:49;100165.34;;;12.80;100.00
17383;BME280;8809;51.892;8.384;2022-10-16T03:48:16;100163.63;;;12.80;100.00
17383;BME280;8809;51.892;8.384;2022-10-16T03:50:43;100172.34;;;12.81;100.00
17383;BME280;8809;51.892;8.384;2022-10-16T03:53:11;100165.41;;;12.81;100.00
17383;BME280;8809;51.892;8.384;2022-10-16T03:55:41;100165.44;;;12.83;100.00
17383;BME280;8809;51.892;8.384;2022-10-16T03:58:09;100169.88;;;12.85;100.00
17383;BME280;8809;51.892;8.384;2022-10-16T04:00:40;100160.28;;;12.86;100.00
17383;BME280;8809;51.892;8.384;2022-10-16T04:03:07;100162.06;;;12.88;100.00
17383;BME280;8809;51.892;8.384;2022-10-16T04:05:34;100159.53;;;12.91;100.00
17383;BME280;8809;51.892;8.384;2022-10-16T04:08:01;100157.84;;;12.93;100.00
17383;BME280;8809;51.892;8.384;2022-10-16T04:10:28;100154.41;;;12.94;100.00
17383;BME280;8809;51.892;8.384;2022-10-16T04:12:55;100163.19;;;12.96;100.00
17383;BME280;8809;51.892;8.384;2022-10-16T04:15:24;100160.63;;;12.99;100.00
17383;BME280;8809;51.892;8.384;2022-10-16T04:17:52;100163.31;;;13.02;100.00
17383;BME280;8809;51.892;8.384;2022-10-16T04:20:20;100165.09;;;13.04;100.00
17383;BME280;8809;51.892;8.384;2022-10-16T04:22:47;100168.66;;;13.06;100.00
17383;BME280;8809;51.892;8.384;2022-10-16T04:25:14;100176.56;;;13.09;100.00
17383;BME280;8809;51.892;8.384;2022-10-16T04:27:43;100184.50;;;13.12;100.00
17383;BME280;8809;51.892;8.384;2022-10-16T04:30:10;100180.16;;;13.12;100.00
17383;BME280;8809;51.892;8.384;2022-10-16T04:32:39;100182.84;;;13.14;100.00
17383;BME280;8809;51.892;8.384;2022-10-16T04:35:06;100196.00;;;13.17;100.00
17383;BME280;8809;51.892;8.384;2022-10-16T04:37:34;100189.06;;;13.19;100.00
17383;BME280;8809;51.892;8.384;2022-10-16T04:40:04;100194.31;;;13.19;100.00
17383;BME280;8809;51.892;8.384;2022-10-16T04:42:31;100192.56;;;13.19;100.00
17383;BME280;8809;51.892;8.384;2022-10-16T04:44:58;100192.59;;;13.21;100.00
17383;BME280;8809;51.892;8.384;2022-10-16T04:47:25;100199.59;;;13.20;100.00
17383;BME280;8809;51.892;8.384;2022-10-16T04:49:54;100199.63;;;13.22;100.00
17383;BME280;8809;51.892;8.384;2022-10-16T04:52:22;100205.75;;;13.22;100.00
17383;BME280;8809;51.892;8.384;2022-10-16T04:54:50;100213.66;;;13.24;100.00
17383;BME280;8809;51.892;8.384;2022-10-16T04:57:17;100210.19;;;13.25;100.00
17383;BME280;8809;51.892;8.384;2022-10-16T04:59:44;100209.31;;;13.24;100.00
17383;BME280;8809;51.892;8.384;2022-10-16T05:02:11;100209.25;;;13.23;100.00
17383;BME280;8809;51.892;8.384;2022-10-16T05:04:38;100210.09;;;13.22;100.00
17383;BME280;8809;51.892;8.384;2022-10-16T05:07:06;100224.97;;;13.23;100.00
17383;BME280;8809;51.892;8.384;2022-10-16T05:09:33;100231.91;;;13.21;100.00
17383;BME280;8809;51.892;8.384;2022-10-16T05:12:00;100217.91;;;13.20;100.00
17383;BME280;8809;51.892;8.384;2022-10-16T05:14:30;100219.66;;;13.20;100.00
17383;BME280;8809;51.892;8.384;2022-10-16T05:16:57;100214.38;;;13.18;100.00
17383;BME280;8809;51.892;8.384;2022-10-16T05:19:24;100220.44;;;13.16;100.00
17383;BME280;8809;51.892;8.384;2022-10-16T05:21:50;100227.41;;;13.15;100.00
17383;BME280;8809;51.892;8.384;2022-10-16T05:24:19;100227.28;;;13.12;100.00
17383;BME280;8809;51.892;8.384;2022-10-16T05:26:46;100234.16;;;13.09;100.00
17383;BME280;8809;51.892;8.384;2022-10-16T05:29:14;100227.09;;;13.05;100.00
17383;BME280;8809;51.892;8.384;2022-10-16T05:31:41;100225.31;;;13.04;100.00
17383;BME280;8809;51.892;8.384;2022-10-16T05:34:08;100223.56;;;13.02;100.00
17383;BME280;8809;51.892;8.384;2022-10-16T05:36:35;100231.38;;;13.01;100.00
17383;BME280;8809;51.892;8.384;2022-10-16T05:39:02;100230.47;;;13.00;100.00
17383;BME280;8809;51.892;8.384;2022-10-16T05:41:31;100227.78;;;12.97;100.00
17383;BME280;8809;51.892;8.384;2022-10-16T05:43:58;100233.00;;;12.96;100.00
17383;BME280;8809;51.892;8.384;2022-10-16T05:46:25;100243.41;;;12.94;100.00
17383;BME280;8809;51.892;8.384;2022-10-16T05:48:52;100252.13;;;12.93;100.00
17383;BME280;8809;51.892;8.384;2022-10-16T05:51:20;100259.97;;;12.93;100.00
17383;BME280;8809;51.892;8.384;2022-10-16T05:53:47;100262.59;;;12.93;100.00
17383;BME280;8809;51.892;8.384;2022-10-16T05:56:14;100265.16;;;12.92;100.00
17383;BME280;8809;51.892;8.384;2022-10-16T05:58:43;100272.16;;;12.93;100.00
17383;BME280;8809;51.892;8.384;2022-10-16T06:01:12;100269.50;;;12.91;100.00
17383;BME280;8809;51.892;8.384;2022-10-16T06:03:39;100269.41;;;12.88;100.00
17383;BME280;8809;51.892;8.384;2022-10-16T06:06:10;100283.38;;;12.87;100.00
17383;BME280;8809;51.892;8.384;2022-10-16T06:08:37;100283.38;;;12.87;100.00
17383;BME280;8809;51.892;8.384;2022-10-16T06:11:06;100285.94;;;12.86;100.00
17383;BME280;8809;51.892;8.384;2022-10-16T06:13:33;100283.28;;;12.84;100.00
17383;BME280;8809;51.892;8.384;2022-10-16T06:16:03;100283.28;;;12.84;100.00
17383;BME280;8809;51.892;8.384;2022-10-16T06:18:31;100293.75;;;12.84;100.00
17383;BME280;8809;51.892;8.384;2022-10-16T06:20:58;100286.78;;;12.85;100.00
17383;BME280;8809;51.892;8.384;2022-10-16T06:23:25;100285.06;;;12.85;100.00
17383;BME280;8809;51.892;8.384;2022-10-16T06:26:04;100281.59;;;12.86;100.00
17383;BME280;8809;51.892;8.384;2022-10-16T06:28:31;100284.19;;;12.85;100.00
17383;BME280;8809;51.892;8.384;2022-10-16T06:30:59;100292.13;;;12.88;100.00
17383;BME280;8809;51.892;8.384;2022-10-16T06:33:27;100299.16;;;12.90;100.00
17383;BME280;8809;51.892;8.384;2022-10-16T06:36:00;100296.63;;;12.93;100.00
17383;BME280;8809;51.892;8.384;2022-10-16T06:38:28;100306.25;;;12.94;100.00
17383;BME280;8809;51.892;8.384;2022-10-16T06:40:55;100306.38;;;12.99;100.00
17383;BME280;8809;51.892;8.384;2022-10-16T06:43:22;100309.97;;;13.02;100.00
17383;BME280;8809;51.892;8.384;2022-10-16T06:45:53;100311.84;;;13.07;100.00
17383;BME280;8809;51.892;8.384;2022-10-16T06:48:20;100322.38;;;13.10;100.00
17383;BME280;8809;51.892;8.384;2022-10-16T06:50:59;100320.72;;;13.13;100.00
17383;BME280;8809;51.892;8.384;2022-10-16T06:53:28;100331.34;;;13.16;100.00
17383;BME280;8809;51.892;8.384;2022-10-16T06:55:56;100340.13;;;13.20;100.00
17383;BME280;8809;51.892;8.384;2022-10-16T06:58:23;100342.81;;;13.21;100.00
17383;BME280;8809;51.892;8.384;2022-10-16T07:00:55;100345.53;;;13.24;100.00
17383;BME280;8809;51.892;8.384;2022-10-16T07:03:22;100347.31;;;13.27;100.00
17383;BME280;8809;51.892;8.384;2022-10-16T07:05:50;100353.53;;;13.30;100.00
17383;BME280;8809;51.892;8.384;2022-10-16T07:08:18;100355.41;;;13.34;100.00
17383;BME280;8809;51.892;8.384;2022-10-16T07:10:45;100358.03;;;13.36;100.00
17383;BME280;8809;51.892;8.384;2022-10-16T07:13:12;100361.59;;;13.38;100.00
17383;BME280;8809;51.892;8.384;2022-10-16T07:15:40;100365.13;;;13.40;100.00
17383;BME280;8809;51.892;8.384;2022-10-16T07:18:08;100369.59;;;13.43;100.00
17383;BME280;8809;51.892;8.384;2022-10-16T07:20:35;100378.38;;;13.46;100.00
17383;BME280;8809;51.892;8.384;2022-10-16T07:23:03;100386.38;;;13.51;100.00
17383;BME280;8809;51.892;8.384;2022-10-16T07:25:31;100388.25;;;13.56;100.00
17383;BME280;8809;51.892;8.384;2022-10-16T07:27:58;100393.59;;;13.59;100.00
17383;BME280;8809;51.892;8.384;2022-10-16T07:30:25;100405.09;;;13.64;100.00
17383;BME280;8809;51.892;8.384;2022-10-16T07:32:52;100405.22;;;13.69;100.00
17383;BME280;8809;51.892;8.384;2022-10-16T07:35:19;100407.06;;;13.73;100.00
17383;BME280;8809;51.892;8.384;2022-10-16T07:37:46;100410.66;;;13.77;100.00
17383;BME280;8809;51.892;8.384;2022-10-16T07:40:13;100418.69;;;13.83;100.00
17383;BME280;8809;51.892;8.384;2022-10-16T07:42:42;100423.13;;;13.87;100.00
17383;BME280;8809;51.892;8.384;2022-10-16T07:45:09;100422.38;;;13.91;100.00
17383;BME280;8809;51.892;8.384;2022-10-16T07:47:37;100426.00;;;13.96;100.00
17383;BME280;8809;51.892;8.384;2022-10-16T07:50:05;100435.69;;;13.98;100.00
17383;BME280;8809;51.892;8.384;2022-10-16T07:56:37;100453.44;;;14.08;100.00
17383;BME280;8809;51.892;8.384;2022-10-16T07:59:06;100449.97;;;14.09;100.00
17383;BME280;8809;51.892;8.384;2022-10-16T08:01:33;100447.38;;;14.11;100.00
17383;BME280;8809;51.892;8.384;2022-10-16T08:04:00;100454.41;;;14.12;100.00
17383;BME280;8809;51.892;8.384;2022-10-16T08:06:27;100445.69;;;14.15;100.00
17383;BME280;8809;51.892;8.384;2022-10-16T08:08:55;100450.13;;;14.17;100.00
17383;BME280;8809;51.892;8.384;2022-10-16T08:11:22;100453.69;;;14.19;100.00
17383;BME280;8809;51.892;8.384;2022-10-16T08:13:50;100446.75;;;14.23;100.00
17383;BME280;8809;51.892;8.384;2022-10-16T08:16:18;100446.03;;;14.28;100.00
17383;BME280;8809;51.892;8.384;2022-10-16T08:18:45;100451.44;;;14.34;100.00
17383;BME280;8809;51.892;8.384;2022-10-16T08:21:14;100453.41;;;14.41;100.00
17383;BME280;8809;51.892;8.384;2022-10-16T08:23:42;100456.16;;;14.47;100.00
17383;BME280;8809;51.892;8.384;2022-10-16T08:26:10;100462.56;;;14.59;100.00
17383;BME280;8809;51.892;8.384;2022-10-16T08:28:39;100459.22;;;14.66;100.00
17383;BME280;8809;51.892;8.384;2022-10-16T08:31:08;100470.81;;;14.75;100.00
17383;BME280;8809;51.892;8.384;2022-10-16T08:33:37;100474.50;;;14.83;100.00
17383;BME280;8809;51.892;8.384;2022-10-16T08:36:05;100486.09;;;14.93;100.00
17383;BME280;8809;51.892;8.384;2022-10-16T08:38:32;100486.25;;;15.01;100.00
17383;BME280;8809;51.892;8.384;2022-10-16T08:44:16;100504.25;;;15.23;100.00
17383;BME280;8809;51.892;8.384;2022-10-16T08:46:52;100506.22;;;15.33;100.00
17383;BME280;8809;51.892;8.384;2022-10-16T08:49:27;100508.22;;;15.45;100.00
17383;BME280;8809;51.892;8.384;2022-10-16T08:51:56;100523.19;;;15.49;100.00
17383;BME280;8809;51.892;8.384;2022-10-16T08:54:29;100525.16;;;15.57;100.00
17383;BME280;8809;51.892;8.384;2022-10-16T08:57:07;100521.06;;;15.72;100.00
17383;BME280;8809;51.892;8.384;2022-10-16T08:59:36;100529.88;;;15.74;100.00
17383;BME280;8809;51.892;8.384;2022-10-16T09:02:18;100530.88;;;15.80;100.00
17383;BME280;8809;51.892;8.384;2022-10-16T09:05:03;100539.69;;;15.82;100.00
17383;BME280;8809;51.892;8.384;2022-10-16T09:07:41;100549.47;;;15.89;100.00
17383;BME280;8809;51.892;8.384;2022-10-16T09:10:24;100544.38;;;15.99;100.00
17383;BME280;8809;51.892;8.384;2022-10-16T09:12:58;100549.88;;;16.11;100.00
17383;BME280;8809;51.892;8.384;2022-10-16T09:15:33;100541.19;;;16.16;100.00
17383;BME280;8809;51.892;8.384;2022-10-16T09:18:06;100551.91;;;16.27;100.00
17383;BME280;8809;51.892;8.384;2022-10-16T09:20:49;100546.91;;;16.41;100.00
17383;BME280;8809;51.892;8.384;2022-10-16T09:23:19;100556.63;;;16.46;100.00
17383;BME280;8809;51.892;8.384;2022-10-16T09:25:48;100557.66;;;16.54;100.00
17383;BME280;8809;51.892;8.384;2022-10-16T09:28:16;100552.50;;;16.60;100.00
17383;BME280;8809;51.892;8.384;2022-10-16T09:30:44;100559.72;;;16.71;100.00
17383;BME280;8809;51.892;8.384;2022-10-16T09:33:12;100558.19;;;16.85;100.00
17383;BME280;8809;51.892;8.384;2022-10-16T09:35:42;100562.66;;;16.90;100.00
17383;BME280;8809;51.892;8.384;2022-10-16T09:38:21;100574.19;;;16.97;100.00
17383;BME280;8809;51.892;8.384;2022-10-16T09:40:49;100568.09;;;17.01;100.00
17383;BME280;8809;51.892;8.384;2022-10-16T09:43:22;100563.06;;;17.18;100.00
17383;BME280;8809;51.892;8.384;2022-10-16T09:46:01;100571.91;;;17.20;100.00
17383;BME280;8809;51.892;8.384;2022-10-16T09:48:32;100572.78;;;17.22;100.00
17383;BME280;8809;51.892;8.384;2022-10-16T09:51:02;100574.66;;;17.29;100.00
17383;BME280;8809;51.892;8.384;2022-10-16T09:53:42;100571.22;;;17.34;100.00
17383;BME280;8809;51.892;8.384;2022-10-16T09:56:11;100588.84;;;17.40;100.00
17383;BME280;8809;51.892;8.384;2022-10-16T09:58:42;100581.94;;;17.47;97.39
17383;BME280;8809;51.892;8.384;2022-10-16T10:01:13;100582.97;;;17.58;96.02
17383;BME280;8809;51.892;8.384;2022-10-16T10:03:42;100597.94;;;17.62;97.11
17383;BME280;8809;51.892;8.384;2022-10-16T10:06:20;100591.88;;;17.66;98.86
17383;BME280;8809;51.892;8.384;2022-10-16T10:09:02;100587.47;;;17.65;99.91
17383;BME280;8809;51.892;8.384;2022-10-16T10:11:44;100591.03;;;17.70;97.33
17383;BME280;8809;51.892;8.384;2022-10-16T10:14:21;100597.28;;;17.75;96.81
17383;BME280;8809;51.892;8.384;2022-10-16T10:16:49;100599.09;;;17.80;97.04
17383;BME280;8809;51.892;8.384;2022-10-16T10:19:18;100612.53;;;17.97;93.34
17383;BME280;8809;51.892;8.384;2022-10-16T10:21:46;100609.88;;;17.99;91.66
17383;BME280;8809;51.892;8.384;2022-10-16T10:24:16;100612.59;;;18.03;91.34
17383;BME280;8809;51.892;8.384;2022-10-16T10:26:49;100618.84;;;18.13;86.99
17383;BME280;8809;51.892;8.384;2022-10-16T10:29:26;100630.34;;;18.16;87.34
17383;BME280;8809;51.892;8.384;2022-10-16T10:32:04;100609.16;;;18.12;88.96
17383;BME280;8809;51.892;8.384;2022-10-16T10:34:44;100615.28;;;18.11;89.89
17383;BME280;8809;51.892;8.384;2022-10-16T10:37:29;100616.03;;;17.99;90.45
17383;BME280;8809;51.892;8.384;2022-10-16T10:40:15;100614.28;;;18.00;91.55
17383;BME280;8809;51.892;8.384;2022-10-16T10:42:53;100623.09;;;18.00;89.92
17383;BME280;8809;51.892;8.384;2022-10-16T10:45:26;100608.03;;;17.92;89.19
17383;BME280;8809;51.892;8.384;2022-10-16T10:48:05;100622.28;;;18.04;90.28
17383;BME280;8809;51.892;8.384;2022-10-16T10:50:42;100625.78;;;18.03;90.55
17383;BME280;8809;51.892;8.384;2022-10-16T10:53:21;100623.19;;;18.06;89.41
17383;BME280;8809;51.892;8.384;2022-10-16T10:56:00;100636.47;;;18.17;91.01
17383;BME280;8809;51.892;8.384;2022-10-16T11:01:44;100632.00;;;18.07;89.05
17383;BME280;8809;51.892;8.384;2022-10-16T11:04:27;100633.75;;;18.06;88.29
17383;BME280;8809;51.892;8.384;2022-10-16T11:07:00;100633.69;;;18.03;89.07
17383;BME280;8809;51.892;8.384;2022-10-16T11:09:33;100632.88;;;18.09;87.90
17383;BME280;8809;51.892;8.384;2022-10-16T11:12:07;100636.28;;;18.00;89.14
17383;BME280;8809;51.892;8.384;2022-10-16T11:14:41;100631.03;;;18.02;90.49
17383;BME280;8809;51.892;8.384;2022-10-16T11:17:19;100637.31;;;18.11;89.80
17383;BME280;8809;51.892;8.384;2022-10-16T11:19:54;100626.91;;;18.25;91.16
17383;BME280;8809;51.892;8.384;2022-10-16T11:22:27;100636.69;;;18.37;89.87
17383;BME280;8809;51.892;8.384;2022-10-16T11:25:02;100635.03;;;18.46;89.92
17383;BME280;8809;51.892;8.384;2022-10-16T11:27:38;100637.81;;;18.57;88.65
17383;BME280;8809;51.892;8.384;2022-10-16T11:30:15;100630.03;;;18.69;90.15
17383;BME280;8809;51.892;8.384;2022-10-16T11:32:54;100638.03;;;18.80;90.33
17383;BME280;8809;51.892;8.384;2022-10-16T11:35:32;100639.03;;;18.91;88.36
17383;BME280;8809;51.892;8.384;2022-10-16T11:38:02;100637.31;;;18.99;87.41
17383;BME280;8809;51.892;8.384;2022-10-16T11:40:38;100640.06;;;19.10;87.40
17383;BME280;8809;51.892;8.384;2022-10-16T11:43:13;100634.81;;;19.17;86.50
17383;BME280;8809;51.892;8.384;2022-10-16T11:45:44;100633.97;;;19.23;89.14
17383;BME280;8809;51.892;8.384;2022-10-16T11:48:19;100642.84;;;19.30;86.75
17383;BME280;8809;51.892;8.384;2022-10-16T11:50:53;100641.09;;;19.33;88.20
17383;BME280;8809;51.892;8.384;2022-10-16T11:53:28;100643.81;;;19.41;90.76
17383;BME280;8809;51.892;8.384;2022-10-16T11:56:00;100643.81;;;19.45;89.89
17383;BME280;8809;51.892;8.384;2022-10-16T11:58:31;100646.53;;;19.48;86.72
17383;BME280;8809;51.892;8.384;2022-10-16T12:01:10;100636.81;;;19.52;85.92
17383;BME280;8809;51.892;8.384;2022-10-16T12:03:46;100648.22;;;19.43;85.73
17383;BME280;8809;51.892;8.384;2022-10-16T12:06:24;100645.47;;;19.28;86.45
17383;BME280;8809;51.892;8.384;2022-10-16T12:08:54;100647.13;;;19.15;86.43
17383;BME280;8809;51.892;8.384;2022-10-16T12:11:34;100647.13;;;19.11;87.79
17383;BME280;8809;51.892;8.384;2022-10-16T12:14:19;100661.22;;;19.13;86.79
17383;BME280;8809;51.892;8.384;2022-10-16T12:16:52;100655.06;;;19.14;87.65
17383;BME280;8809;51.892;8.384;2022-10-16T12:19:21;100659.47;;;19.12;88.40
17383;BME280;8809;51.892;8.384;2022-10-16T12:21:49;100666.50;;;19.10;88.39
17383;BME280;8809;51.892;8.384;2022-10-16T12:24:29;100660.38;;;19.12;87.68
17383;BME280;8809;51.892;8.384;2022-10-16T12:26:58;100662.91;;;19.05;90.06
17383;BME280;8809;51.892;8.384;2022-10-16T12:29:40;100666.41;;;18.98;86.79
17383;BME280;8809;51.892;8.384;2022-10-16T12:32:24;100663.63;;;18.84;87.55
17383;BME280;8809;51.892;8.384;2022-10-16T12:34:56;100665.41;;;18.85;88.15
17383;BME280;8809;51.892;8.384;2022-10-16T12:37:26;100665.38;;;18.80;88.65
17383;BME280;8809;51.892;8.384;2022-10-16T12:39:55;100671.53;;;18.79;89.71
17383;BME280;8809;51.892;8.384;2022-10-16T12:42:33;100660.91;;;18.76;87.92
17383;BME280;8809;51.892;8.384;2022-10-16T12:45:22;100671.56;;;18.82;90.00
17383;BME280;8809;51.892;8.384;2022-10-16T12:47:52;100670.69;;;18.85;87.55
17383;BME280;8809;51.892;8.384;2022-10-16T12:50:26;100680.41;;;18.87;84.57
17383;BME280;8809;51.892;8.384;2022-10-16T12:52:53;100682.19;;;18.88;83.35
17383;BME280;8809;51.892;8.384;2022-10-16T12:55:21;100684.00;;;18.96;83.07
17383;BME280;8809;51.892;8.384;2022-10-16T13:00:44;100688.56;;;19.10;83.24
17383;BME280;8809;51.892;8.384;2022-10-16T13:03:44;100684.19;;;19.17;85.00
17383;BME280;8809;51.892;8.384;2022-10-16T13:06:22;100687.78;;;19.25;87.25
17383;BME280;8809;51.892;8.384;2022-10-16T13:09:13;100699.31;;;19.36;88.16
17383;BME280;8809;51.892;8.384;2022-10-16T13:11:57;100685.25;;;19.43;84.98
17383;BME280;8809;51.892;8.384;2022-10-16T13:14:46;100694.16;;;19.48;79.40
17383;BME280;8809;51.892;8.384;2022-10-16T13:17:24;100693.28;;;19.48;80.76
17383;BME280;8809;51.892;8.384;2022-10-16T13:19:59;100699.47;;;19.53;81.80
17383;BME280;8809;51.892;8.384;2022-10-16T13:22:46;100700.44;;;19.66;80.58
17383;BME280;8809;51.892;8.384;2022-10-16T13:25:22;100704.03;;;19.75;79.75